Weather at Rajlovac Helicopter Base

Public forecast

Using degrees Celsius for public forecast. Weather courtesy of forecast.io.

Closest aviation weather report (METAR) to Rajlovac Helicopter Base

Closest report is Sarajevo International Airport, 3.0 nm (5.5 km) SSE.

2024/05/24 06:00 (retrieved 21 minutes ago)

LQSA 240600Z VRB01KT 9999 FEW045 13/11 Q1020 NOSIG

Closest aviation forecast (TAF) to Rajlovac Helicopter Base

Closest forecast is Sarajevo International Airport, 3.0 nm (5.5 km) SSE.

2024/05/24 06:06 (retrieved 15 minutes ago)

TAF LQSA 240500Z 2406/2506 VRB02KT CAVOK TX25/2412Z TN10/2504Z PROB40 TEMPO 2410/2417 30012KT TSRA FEW035CB SCT050 PROB30 2503/2506 2500 BR BKN008